Terminal Aerodrome Forecast
Issued by NWS

Home | Current Version | Previous Version | Text Only | Print | Product List | Glossary On
Versions: 1 2 3 4 5 6 7 8 9 10 11 12 13 14 15 16
000
FTUS45 KTFX 051100
TAFLWT
TAF
KLWT 051120Z 0512/0612 22012KT P6SM SCT120
     FM052000 27012KT P6SM BKN150
     FM060800 23014KT P6SM BKN150=

USA.gov is the U.S. government's official web portal to all federal, state and local government web resources and services.